createdAt,value
2019-05-15T00:02:27.993Z,1.67
2019-05-15T00:05:13.508Z,1.20
2019-05-15T00:07:59.252Z,1.62
2019-05-15T00:10:44.614Z,1.30
2019-05-15T00:13:29.445Z,1.50
2019-05-15T00:16:14.137Z,1.52
2019-05-15T00:18:59.218Z,1.40
2019-05-15T00:21:44.117Z,1.27
2019-05-15T00:24:29.060Z,1.70
2019-05-15T00:27:13.861Z,1.40
2019-05-15T00:30:19.266Z,1.55
2019-05-15T00:33:04.299Z,1.30
2019-05-15T00:35:48.989Z,1.80
2019-05-15T00:38:33.949Z,1.57
2019-05-15T00:41:18.729Z,1.57
2019-05-15T00:44:03.850Z,1.52
2019-05-15T00:46:48.869Z,1.60
2019-05-15T00:49:34.040Z,1.50
2019-05-15T00:52:19.020Z,1.20
2019-05-15T00:55:05.445Z,1.60
2019-05-15T00:57:50.797Z,1.50
2019-05-15T01:00:39.101Z,1.55
2019-05-15T01:03:23.932Z,1.40
2019-05-15T01:06:08.763Z,1.60
2019-05-15T01:08:53.621Z,1.45
2019-05-15T01:11:38.692Z,1.47
2019-05-15T01:14:23.626Z,1.60
2019-05-15T01:17:09.220Z,1.80
2019-05-15T01:19:54.420Z,1.75
2019-05-15T01:22:39.647Z,1.70
2019-05-15T01:25:24.662Z,1.70
2019-05-15T01:28:09.707Z,1.80
2019-05-15T01:30:54.953Z,2.10
2019-05-15T01:33:39.675Z,2.20
2019-05-15T01:36:24.596Z,1.75
2019-05-15T01:39:09.409Z,1.72
2019-05-15T01:41:54.217Z,1.42
2019-05-15T01:44:39.109Z,1.92
2019-05-15T01:47:24.230Z,1.67
2019-05-15T01:50:09.790Z,1.95
2019-05-15T01:52:54.851Z,1.60
2019-05-15T01:55:39.829Z,1.90
2019-05-15T01:58:25.006Z,1.90
2019-05-15T02:01:09.840Z,1.72
2019-05-15T02:03:54.646Z,1.70
2019-05-15T02:06:39.600Z,1.85
2019-05-15T02:09:24.299Z,1.67
2019-05-15T02:12:09.019Z,1.85
2019-05-15T02:14:53.994Z,1.72
2019-05-15T02:17:39.450Z,1.85
2019-05-15T02:20:24.780Z,1.70
2019-05-15T02:23:11.550Z,1.80
2019-05-15T02:25:58.724Z,1.55
2019-05-15T02:28:43.073Z,1.75
2019-05-15T02:31:30.255Z,1.70
2019-05-15T02:34:14.870Z,1.72
2019-05-15T02:37:00.317Z,1.72
2019-05-15T02:39:45.574Z,1.70
2019-05-15T02:42:30.552Z,1.90
2019-05-15T02:45:15.457Z,1.67
2019-05-15T02:48:00.331Z,1.98
2019-05-15T02:50:45.141Z,1.70
2019-05-15T02:53:30.312Z,1.72
2019-05-15T02:56:15.210Z,1.75
2019-05-15T02:59:00.266Z,1.80
2019-05-15T03:01:45.335Z,2.00
2019-05-15T03:04:30.142Z,1.80
2019-05-15T03:07:15.237Z,1.87
2019-05-15T03:10:00.303Z,2.08
2019-05-15T03:12:45.574Z,2.00
2019-05-15T03:15:30.741Z,2.00
2019-05-15T03:18:19.163Z,2.20
2019-05-15T03:21:03.046Z,2.27
2019-05-15T03:23:50.625Z,1.90
2019-05-15T03:26:35.475Z,2.20
2019-05-15T03:29:21.603Z,1.95
2019-05-15T03:32:24.303Z,2.00
2019-05-15T03:34:56.685Z,2.10
2019-05-15T03:37:40.264Z,2.12
2019-05-15T03:40:25.591Z,2.40
2019-05-15T03:43:10.494Z,1.85
2019-05-15T03:45:55.316Z,2.10
2019-05-15T03:48:40.822Z,2.52
2019-05-15T03:51:28.752Z,2.27
2019-05-15T03:54:12.833Z,2.02
2019-05-15T03:56:58.552Z,2.40
2019-05-15T03:59:43.812Z,2.12
2019-05-15T04:02:28.996Z,2.25
2019-05-15T04:05:14.179Z,2.33
2019-05-15T04:08:00.046Z,2.42
2019-05-15T04:10:45.118Z,2.45
2019-05-15T04:13:30.310Z,2.22
2019-05-15T04:16:15.392Z,2.37
2019-05-15T04:19:00.491Z,2.33
2019-05-15T04:21:45.606Z,2.40
2019-05-15T04:24:31.962Z,2.75
2019-05-15T04:27:19.712Z,2.98
2019-05-15T04:30:24.486Z,2.80
2019-05-15T04:33:09.832Z,2.60
2019-05-15T04:35:55.061Z,2.30
2019-05-15T04:38:40.027Z,2.10
2019-05-15T04:41:24.788Z,2.40
2019-05-15T04:44:10.397Z,2.60
2019-05-15T04:46:59.199Z,2.15
2019-05-15T04:49:42.360Z,2.30
2019-05-15T04:52:30.534Z,2.30
2019-05-15T04:55:14.141Z,2.33
2019-05-15T04:57:59.416Z,3.35
2019-05-15T05:00:49.667Z,2.58
2019-05-15T05:03:34.850Z,2.55
2019-05-15T05:06:20.329Z,2.77
2019-05-15T05:09:05.109Z,2.40
2019-05-15T05:11:49.850Z,2.35
2019-05-15T05:14:54.662Z,2.17
2019-05-15T05:17:39.558Z,2.12
2019-05-15T05:20:24.709Z,2.00
2019-05-15T05:23:09.523Z,2.67
2019-05-15T05:25:54.737Z,2.37
2019-05-15T05:28:39.870Z,2.77
2019-05-15T05:31:24.583Z,2.42
2019-05-15T05:34:09.545Z,2.62
2019-05-15T05:36:54.291Z,2.42
2019-05-15T05:39:39.535Z,2.35
2019-05-15T05:42:24.810Z,2.40
2019-05-15T05:45:10.205Z,2.85
2019-05-15T05:47:55.094Z,2.80
2019-05-15T05:50:44.162Z,2.22
2019-05-15T05:53:28.799Z,2.25
2019-05-15T05:56:14.305Z,2.30
2019-05-15T05:58:58.942Z,2.17
2019-05-15T06:01:44.424Z,2.00
2019-05-15T06:04:29.769Z,1.95
2019-05-15T06:07:14.754Z,1.82
2019-05-15T06:09:59.402Z,2.20
2019-05-15T06:12:44.178Z,2.00
2019-05-15T06:15:29.155Z,2.25
2019-05-15T06:18:14.098Z,2.33
2019-05-15T06:20:59.105Z,2.37
2019-05-15T06:23:46.173Z,1.80
2019-05-15T06:26:30.822Z,1.87
2019-05-15T06:29:17.755Z,1.90
2019-05-15T06:32:02.450Z,1.45
2019-05-15T06:34:48.519Z,1.70
2019-05-15T06:37:33.560Z,1.40
2019-05-15T06:40:18.717Z,1.30
2019-05-15T06:43:03.816Z,1.87
2019-05-15T06:45:48.954Z,1.70
2019-05-15T06:48:33.794Z,1.75
2019-05-15T06:51:19.715Z,1.80
2019-05-15T06:54:04.918Z,2.45
2019-05-15T06:56:49.622Z,2.20
2019-05-15T06:59:34.585Z,1.80
2019-05-15T07:02:19.342Z,1.75
2019-05-15T07:05:07.675Z,1.72
2019-05-15T07:07:52.900Z,1.70
2019-05-15T07:10:37.969Z,1.50
2019-05-15T07:13:22.971Z,1.45
2019-05-15T07:16:08.706Z,1.50
2019-05-15T07:18:53.634Z,1.65
2019-05-15T07:21:38.940Z,1.98
2019-05-15T07:24:24.266Z,1.60
2019-05-15T07:27:09.267Z,1.57
2019-05-15T07:29:53.981Z,1.70
2019-05-15T07:32:39.563Z,1.27
2019-05-15T07:35:24.573Z,1.20
2019-05-15T07:38:09.427Z,1.30
2019-05-15T07:41:00.066Z,1.25
2019-05-15T07:43:41.558Z,1.20
2019-05-15T07:46:28.653Z,1.42
2019-05-15T07:49:14.090Z,1.20
2019-05-15T07:51:59.317Z,1.45
2019-05-15T07:54:44.532Z,1.22
2019-05-15T07:57:29.959Z,1.70
2019-05-15T08:00:18.803Z,1.67
2019-05-15T08:03:03.564Z,1.30
2019-05-15T08:05:58.631Z,1.20
2019-05-15T08:08:35.512Z,1.17
2019-05-15T08:11:24.680Z,1.50
2019-05-15T08:14:08.972Z,1.20
2019-05-15T08:16:54.306Z,1.27
2019-05-15T08:19:39.050Z,1.30
2019-05-15T08:22:24.042Z,1.57
2019-05-15T08:25:12.973Z,1.30
2019-05-15T08:27:58.634Z,1.40
2019-05-15T08:30:43.685Z,1.32
2019-05-15T08:33:28.960Z,2.02
2019-05-15T08:36:13.774Z,1.30
2019-05-15T08:38:59.171Z,1.42
2019-05-15T08:41:44.258Z,1.20
2019-05-15T08:44:29.571Z,1.20
2019-05-15T08:47:14.693Z,1.10
2019-05-15T08:49:59.458Z,1.27
2019-05-15T08:52:44.445Z,1.00
2019-05-15T08:55:29.664Z,0.93
2019-05-15T08:58:14.296Z,1.17
2019-05-15T09:00:59.090Z,1.20
2019-05-15T09:03:44.474Z,1.00
2019-05-15T09:06:29.371Z,1.12
2019-05-15T09:09:14.417Z,1.50
2019-05-15T09:11:59.157Z,1.22
2019-05-15T09:14:44.206Z,1.02
2019-05-15T09:17:29.051Z,1.92
2019-05-15T09:20:15.237Z,1.50
2019-05-15T09:23:00.051Z,1.55
2019-05-15T09:25:49.415Z,1.20
2019-05-15T09:28:33.235Z,1.20
2019-05-15T09:31:19.263Z,1.10
2019-05-15T09:34:04.278Z,1.22
2019-05-15T09:36:49.371Z,1.20
2019-05-15T09:39:34.681Z,1.15
2019-05-15T09:42:19.701Z,1.20
2019-05-15T09:45:08.912Z,1.55
2019-05-15T09:47:54.255Z,1.25
2019-05-15T09:50:39.606Z,1.20
2019-05-15T09:53:24.913Z,1.05
2019-05-15T09:56:09.686Z,1.02
2019-05-15T09:58:54.461Z,1.25
2019-05-15T10:01:39.618Z,1.10
2019-05-15T10:04:25.286Z,1.30
2019-05-15T10:07:10.461Z,1.27
2019-05-15T10:09:55.562Z,1.05
2019-05-15T10:12:40.464Z,1.77
2019-05-15T10:15:26.797Z,1.30
2019-05-15T10:18:11.511Z,1.10
2019-05-15T10:20:58.137Z,1.30
2019-05-15T10:23:43.271Z,1.40
2019-05-15T10:26:28.525Z,1.12
2019-05-15T10:29:13.500Z,1.22
2019-05-15T10:31:58.265Z,1.02
2019-05-15T10:34:43.197Z,1.15
2019-05-15T10:37:28.646Z,1.15
2019-05-15T10:40:14.438Z,1.50
2019-05-15T10:42:59.895Z,1.25
2019-05-15T10:45:44.558Z,1.22
2019-05-15T10:48:29.556Z,2.50
2019-05-15T10:51:14.833Z,1.20
2019-05-15T10:53:59.623Z,1.30
2019-05-15T10:56:45.567Z,1.10
2019-05-15T10:59:30.702Z,1.30
2019-05-15T11:02:15.791Z,1.32
2019-05-15T11:05:00.636Z,1.47
2019-05-15T11:07:48.053Z,1.20
2019-05-15T11:10:32.235Z,1.02
2019-05-15T11:13:18.573Z,1.45
2019-05-15T11:16:04.103Z,1.98
2019-05-15T11:18:49.135Z,2.60
2019-05-15T11:21:34.193Z,2.40
2019-05-15T11:24:19.559Z,1.80
2019-05-15T11:27:04.758Z,1.20
2019-05-15T11:29:49.669Z,1.30
2019-05-15T11:32:34.390Z,1.10
2019-05-15T11:35:19.580Z,1.30
2019-05-15T11:38:04.320Z,1.15
2019-05-15T11:40:49.032Z,1.40
2019-05-15T11:43:33.985Z,1.10
2019-05-15T11:46:18.790Z,1.20
2019-05-15T11:49:03.734Z,1.40
2019-05-15T11:51:49.335Z,1.10
2019-05-15T11:54:34.589Z,2.22
2019-05-15T11:57:19.597Z,1.57
2019-05-15T12:00:15.085Z,1.15
2019-05-15T12:02:53.980Z,1.10
2019-05-15T12:05:38.905Z,1.10
2019-05-15T12:08:24.464Z,0.72
2019-05-15T12:11:15.521Z,1.00
2019-05-15T12:13:56.523Z,1.02
2019-05-15T12:16:41.570Z,0.90
2019-05-15T12:19:29.143Z,1.00
2019-05-15T12:22:13.758Z,0.90
2019-05-15T12:25:00.507Z,1.10
2019-05-15T12:27:45.375Z,1.10
2019-05-15T12:30:30.615Z,1.10
2019-05-15T12:33:18.174Z,1.05
2019-05-15T12:36:03.324Z,1.20
2019-05-15T12:38:50.343Z,1.00
2019-05-15T13:01:14.607Z,1.00
2019-05-15T13:03:50.430Z,1.15
2019-05-15T13:06:47.307Z,0.90
2019-05-15T13:09:22.254Z,1.30
2019-05-15T13:12:08.522Z,1.10
2019-05-15T13:14:53.897Z,1.10
2019-05-15T13:17:39.030Z,0.90
2019-05-15T13:20:24.098Z,1.00
2019-05-15T13:23:09.085Z,1.30
2019-05-15T13:25:53.905Z,0.90
2019-05-15T13:28:39.103Z,0.90
2019-05-15T13:31:24.220Z,1.80
2019-05-15T13:34:09.214Z,0.95
2019-05-15T13:36:54.086Z,1.32
2019-05-15T13:39:59.186Z,1.12
2019-05-15T13:42:44.347Z,1.00
2019-05-15T13:45:29.340Z,0.90
2019-05-15T13:48:16.530Z,0.90
2019-05-15T13:51:01.684Z,1.00
2019-05-15T13:53:48.865Z,0.93
2019-05-15T13:56:33.579Z,0.93
2019-05-15T13:59:18.470Z,0.82
2019-05-15T14:02:03.273Z,1.57
2019-05-15T14:04:49.154Z,0.90
2019-05-15T14:07:45.983Z,1.05
2019-05-15T14:10:21.773Z,1.10
2019-05-15T14:13:06.940Z,0.98
2019-05-15T14:15:51.833Z,1.10
2019-05-15T14:18:38.913Z,0.90
2019-05-15T14:21:23.558Z,0.75
2019-05-15T14:24:09.019Z,0.93
2019-05-15T14:26:54.400Z,1.00
2019-05-15T14:29:39.519Z,1.17
2019-05-15T14:32:35.462Z,1.20
2019-05-15T14:35:11.773Z,1.00
2019-05-15T14:38:03.552Z,0.80
2019-05-15T14:40:43.601Z,0.78
2019-05-15T14:43:41.623Z,0.88
2019-05-15T14:46:26.711Z,0.80
2019-05-15T14:49:11.893Z,0.90
2019-05-15T14:52:05.656Z,0.85
2019-05-15T14:54:43.584Z,1.00
2019-05-15T14:57:28.521Z,0.93
2019-05-15T15:00:14.552Z,1.27
2019-05-15T15:02:59.693Z,0.90
2019-05-15T15:05:45.205Z,0.78
2019-05-15T15:08:32.553Z,1.45
2019-05-15T15:11:18.089Z,1.10
2019-05-15T15:14:04.534Z,0.90
2019-05-15T15:16:49.347Z,1.00
2019-05-15T15:19:34.062Z,1.02
2019-05-15T15:22:18.884Z,0.95
2019-05-15T15:25:05.451Z,0.80
2019-05-15T15:27:50.442Z,0.82
2019-05-15T15:30:37.921Z,0.80
2019-05-15T15:33:22.112Z,0.90
2019-05-15T15:36:08.866Z,0.90
2019-05-15T15:38:53.617Z,1.10
2019-05-15T15:41:39.047Z,1.00
2019-05-15T15:44:24.509Z,0.70
2019-05-15T15:47:09.675Z,0.80
2019-05-15T15:49:54.400Z,1.17
2019-05-15T15:52:40.289Z,0.95
2019-05-15T15:55:25.065Z,1.17
2019-05-15T15:58:09.875Z,1.07
2019-05-15T16:00:56.035Z,0.95
2019-05-15T16:03:40.828Z,1.00
2019-05-15T16:06:25.792Z,1.00
2019-05-15T16:09:11.046Z,0.82
2019-05-15T16:11:57.971Z,0.80
2019-05-15T16:14:42.706Z,0.85
2019-05-15T16:17:28.602Z,0.80
2019-05-15T16:20:15.027Z,0.80
2019-05-15T16:22:59.966Z,1.10
2019-05-15T16:25:45.357Z,0.78
2019-05-15T16:28:30.904Z,0.60
2019-05-15T16:31:15.691Z,0.90
2019-05-15T16:34:01.126Z,0.85
2019-05-15T16:36:48.754Z,0.78
2019-05-15T16:39:33.312Z,0.85
2019-05-15T16:42:18.710Z,0.88
2019-05-15T16:45:09.394Z,0.80
2019-05-15T16:47:54.421Z,0.72
2019-05-15T16:50:39.410Z,1.27
2019-05-15T16:53:24.274Z,0.90
2019-05-15T16:56:09.657Z,0.85
2019-05-15T16:58:54.355Z,0.80
2019-05-15T17:01:39.518Z,0.78
2019-05-15T17:04:24.649Z,1.30
2019-05-15T17:07:09.457Z,0.75
2019-05-15T17:09:55.794Z,1.25
2019-05-15T17:12:40.546Z,1.00
2019-05-15T17:15:27.781Z,1.00
2019-05-15T17:18:12.262Z,0.90
2019-05-15T17:20:58.861Z,1.30
2019-05-15T17:23:43.943Z,0.78
2019-05-15T17:26:29.179Z,0.85
2019-05-15T17:29:14.114Z,0.90
2019-05-15T17:31:59.337Z,1.00
2019-05-15T17:34:44.025Z,2.45
2019-05-15T17:37:28.842Z,2.10
2019-05-15T17:40:14.674Z,1.45
2019-05-15T17:43:02.617Z,1.40
2019-05-15T17:45:48.153Z,1.60
2019-05-15T17:48:33.263Z,2.45
2019-05-15T17:51:18.698Z,9.35
2019-05-15T17:54:03.696Z,3.00
2019-05-15T17:56:49.079Z,1.45
2019-05-15T17:59:34.260Z,1.32
2019-05-15T18:02:19.223Z,3.40
2019-05-15T18:05:07.476Z,0.85
2019-05-15T18:07:53.621Z,0.75
2019-05-15T18:10:38.561Z,1.00
2019-05-15T18:13:23.341Z,1.10
2019-05-15T18:16:13.453Z,2.35
2019-05-15T18:18:54.746Z,1.72
2019-05-15T18:21:39.991Z,1.90
2019-05-15T18:24:25.042Z,1.70
2019-05-15T18:27:09.700Z,1.60
2019-05-15T18:29:54.914Z,2.12
2019-05-15T18:32:39.857Z,3.87
2019-05-15T18:35:25.875Z,4.65
2019-05-15T18:38:10.970Z,2.25
2019-05-15T18:40:58.127Z,1.10
2019-05-15T18:43:43.192Z,1.20
2019-05-15T18:46:28.934Z,0.80
2019-05-15T18:49:14.328Z,1.25
2019-05-15T18:51:59.902Z,1.02
2019-05-15T18:54:44.571Z,0.85
2019-05-15T18:57:29.601Z,3.98
2019-05-15T19:00:18.210Z,1.85
2019-05-15T19:03:16.710Z,1.25
2019-05-15T19:05:50.847Z,0.85
2019-05-15T19:08:35.575Z,0.70
2019-05-15T19:11:20.977Z,1.00
2019-05-15T19:14:08.238Z,0.90
2019-05-15T19:16:53.174Z,1.20
2019-05-15T19:19:38.863Z,0.80
2019-05-15T19:22:23.944Z,1.00
2019-05-15T19:25:09.775Z,0.60
2019-05-15T19:27:54.597Z,1.17
2019-05-15T19:30:39.397Z,1.20
2019-05-15T19:33:34.432Z,1.12
2019-05-15T19:36:11.194Z,0.90
2019-05-15T19:38:56.534Z,0.70
2019-05-15T19:41:41.371Z,0.80
2019-05-15T19:44:28.360Z,0.60
2019-05-15T19:47:13.156Z,1.07
2019-05-15T19:49:57.946Z,0.90
2019-05-15T19:52:43.017Z,0.75
2019-05-15T19:55:27.908Z,0.68
2019-05-15T19:58:13.224Z,0.57
2019-05-15T20:00:58.524Z,1.00
2019-05-15T20:03:50.630Z,0.85
2019-05-15T20:06:30.735Z,1.75
2019-05-15T20:09:18.244Z,2.20
2019-05-15T20:12:03.219Z,0.82
2019-05-15T20:14:48.933Z,0.78
2019-05-15T20:17:34.354Z,0.70
2019-05-15T20:20:19.713Z,0.65
2019-05-15T20:23:08.345Z,0.85
2019-05-15T20:25:52.380Z,0.60
2019-05-15T20:28:39.291Z,0.80
2019-05-15T20:31:24.741Z,0.93
2019-05-15T20:34:10.257Z,0.95
2019-05-15T20:36:58.653Z,1.00
2019-05-15T20:39:42.739Z,1.40
2019-05-15T20:42:27.663Z,0.90
2019-05-15T20:45:12.787Z,1.05
2019-05-15T20:47:58.503Z,0.90
2019-05-15T20:50:43.616Z,1.25
2019-05-15T20:53:35.415Z,0.93
2019-05-15T20:56:20.316Z,1.32
2019-05-15T20:59:05.589Z,0.88
2019-05-15T21:01:51.079Z,2.37
2019-05-15T21:04:38.391Z,1.42
2019-05-15T21:07:34.860Z,1.15
2019-05-15T21:10:10.807Z,0.98
2019-05-15T21:12:59.141Z,1.17
2019-05-15T21:15:42.859Z,0.80
2019-05-15T21:18:28.991Z,1.15
2019-05-15T21:21:14.733Z,1.05
2019-05-15T21:24:00.978Z,0.88
2019-05-15T21:26:45.712Z,1.00
2019-05-15T21:29:30.573Z,0.85
2019-05-15T21:32:15.306Z,0.85
2019-05-15T21:35:00.482Z,0.70
2019-05-15T21:37:45.627Z,0.80
2019-05-15T21:40:30.430Z,1.30
2019-05-15T21:43:15.259Z,0.80
2019-05-15T21:46:00.185Z,0.80
2019-05-15T21:48:44.894Z,1.20
2019-05-15T21:51:29.638Z,1.00
2019-05-15T21:54:14.459Z,0.90
2019-05-15T21:57:18.835Z,0.95
2019-05-15T21:59:46.772Z,0.90
2019-05-15T22:02:31.796Z,1.00
2019-05-15T22:05:18.460Z,1.20
2019-05-15T22:08:04.939Z,0.82
2019-05-15T22:10:50.482Z,1.00
2019-05-15T22:13:35.742Z,1.50
2019-05-15T22:16:20.633Z,0.80
2019-05-15T22:19:05.937Z,1.25
2019-05-15T22:21:51.088Z,1.45
2019-05-15T22:24:37.871Z,2.60
2019-05-15T22:27:23.073Z,2.90
2019-05-15T22:30:09.750Z,3.30
2019-05-15T22:32:55.077Z,3.27
2019-05-15T22:35:40.121Z,2.08
2019-05-15T22:38:25.263Z,1.30
2019-05-15T22:41:10.534Z,1.37
2019-05-15T22:43:55.349Z,1.00
2019-05-15T22:46:40.205Z,0.80
2019-05-15T22:49:24.999Z,1.00
2019-05-15T22:52:09.811Z,1.00
2019-05-15T22:54:55.032Z,1.40
2019-05-15T22:57:39.747Z,0.90
2019-05-15T23:00:24.794Z,1.12
2019-05-15T23:03:09.881Z,0.90
2019-05-15T23:05:54.828Z,0.98
2019-05-15T23:08:39.537Z,1.60
2019-05-15T23:11:24.918Z,1.32
2019-05-15T23:14:09.704Z,1.30
2019-05-15T23:16:54.822Z,1.00
2019-05-15T23:19:39.547Z,1.37
2019-05-15T23:22:24.287Z,1.10
2019-05-15T23:25:09.870Z,1.17
2019-05-15T23:27:54.998Z,1.20
2019-05-15T23:30:39.995Z,1.15
2019-05-15T23:33:24.840Z,0.90
2019-05-15T23:36:09.721Z,0.90
2019-05-15T23:38:54.488Z,0.95
2019-05-15T23:41:39.331Z,1.17
2019-05-15T23:44:24.221Z,0.90
2019-05-15T23:47:10.060Z,1.00
2019-05-15T23:49:55.045Z,1.15
2019-05-15T23:52:39.854Z,1.05
2019-05-15T23:55:24.725Z,1.10
2019-05-15T23:58:09.526Z,1.10
